createdAt,value
2019-05-13T00:02:38.630Z,2.70
2019-05-13T00:05:44.374Z,2.80
2019-05-13T00:08:47.785Z,2.87
2019-05-13T00:11:54.048Z,2.72
2019-05-13T00:14:57.692Z,2.90
2019-05-13T00:18:03.612Z,3.17
2019-05-13T00:21:07.290Z,2.30
2019-05-13T00:24:10.965Z,2.53
2019-05-13T00:27:14.878Z,3.13
2019-05-13T00:30:18.670Z,2.83
2019-05-13T00:33:24.346Z,3.03
2019-05-13T00:36:27.954Z,2.90
2019-05-13T00:39:33.703Z,2.57
2019-05-13T00:42:37.029Z,3.20
2019-05-13T00:45:40.763Z,2.80
2019-05-13T00:48:44.736Z,2.70
2019-05-13T00:51:48.622Z,3.57
2019-05-13T00:54:53.506Z,2.80
2019-05-13T00:57:57.466Z,3.10
2019-05-13T01:01:03.518Z,2.80
2019-05-13T01:04:06.790Z,3.20
2019-05-13T01:07:24.424Z,2.77
2019-05-13T01:10:16.031Z,3.13
2019-05-13T01:13:19.702Z,2.77
2019-05-13T01:16:23.556Z,3.20
2019-05-13T01:19:27.259Z,3.47
2019-05-13T01:22:30.954Z,2.90
2019-05-13T01:25:34.774Z,2.93
2019-05-13T01:28:38.418Z,3.20
2019-05-13T01:31:43.500Z,3.03
2019-05-13T01:34:47.412Z,3.17
2019-05-13T01:37:53.684Z,3.00
2019-05-13T01:40:56.510Z,3.00
2019-05-13T01:44:00.255Z,3.20
2019-05-13T01:47:04.615Z,2.73
2019-05-13T01:50:08.784Z,3.57
2019-05-13T01:53:14.514Z,2.97
2019-05-13T01:56:17.837Z,3.10
2019-05-13T01:59:23.966Z,3.30
2019-05-13T02:02:27.700Z,3.40
2019-05-13T02:05:33.647Z,3.33
2019-05-13T02:08:36.786Z,3.37
2019-05-13T02:11:43.706Z,3.60
2019-05-13T02:14:45.950Z,3.53
2019-05-13T02:17:49.611Z,3.37
2019-05-13T02:20:55.353Z,3.23
2019-05-13T02:23:58.939Z,3.60
2019-05-13T02:27:03.682Z,3.90
2019-05-13T02:30:08.040Z,3.23
2019-05-13T02:33:13.241Z,3.50
2019-05-13T02:36:17.340Z,3.77
2019-05-13T02:39:22.318Z,3.40
2019-05-13T02:42:26.346Z,3.30
2019-05-13T02:45:33.007Z,3.10
2019-05-13T02:48:35.852Z,3.30
2019-05-13T02:51:42.609Z,3.73
2019-05-13T02:54:44.922Z,3.03
2019-05-13T02:57:48.643Z,3.00
2019-05-13T03:00:53.693Z,2.97
2019-05-13T03:03:57.728Z,3.27
2019-05-13T03:07:03.074Z,3.20
2019-05-13T03:10:07.875Z,3.40
2019-05-13T03:13:12.655Z,3.17
2019-05-13T03:16:25.944Z,3.23
2019-05-13T03:19:32.914Z,3.70
2019-05-13T03:22:35.477Z,3.57
2019-05-13T03:25:42.686Z,3.87
2019-05-13T03:28:44.838Z,3.20
2019-05-13T03:31:48.523Z,3.30
2019-05-13T03:34:55.841Z,3.50
2019-05-13T03:37:58.285Z,3.47
2019-05-13T03:41:04.132Z,3.33
2019-05-13T03:44:13.532Z,3.30
2019-05-13T03:47:18.423Z,3.27
2019-05-13T03:50:22.852Z,3.77
2019-05-13T03:53:26.910Z,3.80
2019-05-13T03:56:32.829Z,3.57
2019-05-13T03:59:36.445Z,3.43
2019-05-13T04:02:42.946Z,3.40
2019-05-13T04:05:46.486Z,3.60
2019-05-13T04:08:53.554Z,3.87
2019-05-13T04:11:55.998Z,3.53
2019-05-13T04:15:03.250Z,3.33
2019-05-13T04:18:05.410Z,3.47
2019-05-13T04:21:12.612Z,3.33
2019-05-13T04:24:14.795Z,3.53
2019-05-13T04:27:19.170Z,4.00
2019-05-13T04:30:24.638Z,3.67
2019-05-13T04:33:28.750Z,3.70
2019-05-13T04:36:33.011Z,3.73
2019-05-13T04:39:47.773Z,3.87
2019-05-13T04:42:42.755Z,4.67
2019-05-13T04:45:47.419Z,3.63
2019-05-13T04:48:53.054Z,4.17
2019-05-13T04:51:56.687Z,3.90
2019-05-13T04:55:03.436Z,3.90
2019-05-13T04:58:06.176Z,3.77
2019-05-13T05:01:48.793Z,3.63
2019-05-13T05:05:03.359Z,4.70
2019-05-13T05:08:42.126Z,4.50
2019-05-13T05:12:17.309Z,4.00
2019-05-13T05:15:44.579Z,3.90
2019-05-13T05:19:06.289Z,3.60
2019-05-13T05:22:28.285Z,4.00
2019-05-13T05:25:52.152Z,4.50
2019-05-13T05:29:18.972Z,4.87
2019-05-13T05:33:02.921Z,4.80
2019-05-13T05:36:33.309Z,4.20
2019-05-13T05:39:39.147Z,5.03
2019-05-13T05:42:44.661Z,3.92
2019-05-13T05:45:53.070Z,3.80
2019-05-13T05:49:02.103Z,4.17
2019-05-13T05:52:06.769Z,4.00
2019-05-13T05:55:11.298Z,3.57
2019-05-13T05:58:16.953Z,4.75
2019-05-13T06:01:24.116Z,3.95
2019-05-13T06:04:28.211Z,3.50
2019-05-13T06:07:33.627Z,3.87
2019-05-13T06:10:49.121Z,4.53
2019-05-13T06:13:42.781Z,4.33
2019-05-13T06:16:46.583Z,3.53
2019-05-13T06:19:51.317Z,3.40
2019-05-13T06:22:55.443Z,3.40
2019-05-13T06:26:01.933Z,3.70
2019-05-13T06:29:05.295Z,3.93
2019-05-13T06:32:19.056Z,4.20
2019-05-13T06:35:14.503Z,4.53
2019-05-13T06:38:18.158Z,3.40
2019-05-13T06:41:22.093Z,3.87
2019-05-13T06:44:25.831Z,4.60
2019-05-13T06:47:32.029Z,3.53
2019-05-13T06:50:35.063Z,3.47
2019-05-13T06:53:41.302Z,3.83
2019-05-13T06:56:44.163Z,3.87
2019-05-13T06:59:47.935Z,3.93
2019-05-13T07:02:51.938Z,3.47
2019-05-13T07:05:56.168Z,3.47
2019-05-13T07:09:01.427Z,3.60
2019-05-13T07:12:05.265Z,3.60
2019-05-13T07:15:11.544Z,3.40
2019-05-13T07:18:16.342Z,3.17
2019-05-13T07:21:21.694Z,3.87
2019-05-13T07:24:25.883Z,4.03
2019-05-13T07:27:31.661Z,4.40
2019-05-13T07:30:42.508Z,3.97
2019-05-13T07:33:46.681Z,3.57
2019-05-13T07:36:51.403Z,4.63
2019-05-13T07:39:55.426Z,3.90
2019-05-13T07:43:01.560Z,4.47
2019-05-13T07:46:04.611Z,4.63
2019-05-13T07:49:08.250Z,4.13
2019-05-13T07:52:12.129Z,4.63
2019-05-13T07:55:15.970Z,4.13
2019-05-13T07:58:22.701Z,4.57
2019-05-13T08:01:25.552Z,4.00
2019-05-13T08:04:29.354Z,3.85
2019-05-13T08:07:33.424Z,3.80
2019-05-13T08:10:37.170Z,4.70
2019-05-13T08:13:41.591Z,4.43
2019-05-13T08:16:46.431Z,3.70
2019-05-13T08:19:51.981Z,3.07
2019-05-13T08:22:55.873Z,3.53
2019-05-13T08:26:02.077Z,3.02
2019-05-13T08:29:06.137Z,2.80
2019-05-13T08:32:11.310Z,2.95
2019-05-13T08:35:15.502Z,3.30
2019-05-13T08:38:19.530Z,3.33
2019-05-13T08:41:23.672Z,3.20
2019-05-13T08:44:27.443Z,2.87
2019-05-13T08:47:31.505Z,2.40
2019-05-13T08:50:35.443Z,2.70
2019-05-13T08:53:39.202Z,2.50
2019-05-13T08:56:43.151Z,2.30
2019-05-13T08:59:46.838Z,2.23
2019-05-13T09:02:52.251Z,2.20
2019-05-13T09:05:57.219Z,2.60
2019-05-13T09:09:02.390Z,2.63
2019-05-13T09:12:06.310Z,2.60
2019-05-13T09:15:11.865Z,2.50
2019-05-13T09:18:15.772Z,2.80
2019-05-13T09:21:22.289Z,3.20
2019-05-13T09:24:33.025Z,2.73
2019-05-13T09:27:31.890Z,2.80
2019-05-13T09:30:36.136Z,2.60
2019-05-13T09:33:41.804Z,2.23
2019-05-13T09:36:45.299Z,2.40
2019-05-13T09:39:51.473Z,3.37
2019-05-13T09:42:55.319Z,2.60
2019-05-13T09:46:01.431Z,2.70
2019-05-13T09:49:16.183Z,2.40
2019-05-13T09:52:11.885Z,2.37
2019-05-13T09:55:26.465Z,2.30
2019-05-13T09:58:22.336Z,2.90
2019-05-13T10:01:26.407Z,2.60
2019-05-13T10:04:31.810Z,2.30
2019-05-13T10:07:35.923Z,2.77
2019-05-13T10:10:42.112Z,2.47
2019-05-13T10:13:45.139Z,2.70
2019-05-13T10:16:51.329Z,3.03
2019-05-13T10:19:54.245Z,2.60
2019-05-13T10:22:57.935Z,2.40
2019-05-13T10:26:03.861Z,2.97
2019-05-13T10:29:07.691Z,2.50
2019-05-13T10:32:12.010Z,2.70
2019-05-13T10:35:15.854Z,2.80
2019-05-13T10:38:22.076Z,2.37
2019-05-13T10:41:25.416Z,2.57
2019-05-13T10:44:29.183Z,2.57
2019-05-13T10:47:33.749Z,2.40
2019-05-13T10:50:37.470Z,2.23
2019-05-13T10:53:42.558Z,2.10
2019-05-13T10:56:46.530Z,2.47
2019-05-13T10:59:52.461Z,2.17
2019-05-13T11:02:55.942Z,2.13
2019-05-13T11:05:59.684Z,2.53
2019-05-13T11:09:05.382Z,2.33
2019-05-13T11:12:11.660Z,2.00
2019-05-13T11:15:14.809Z,2.63
2019-05-13T11:18:19.686Z,2.00
2019-05-13T11:21:24.138Z,2.10
2019-05-13T11:24:28.829Z,2.40
2019-05-13T11:27:32.599Z,2.63
2019-05-13T11:30:37.222Z,2.20
2019-05-13T11:33:42.483Z,2.30
2019-05-13T11:36:46.645Z,2.27
2019-05-13T11:39:51.697Z,2.40
2019-05-13T11:42:55.600Z,2.40
2019-05-13T11:46:01.978Z,2.67
2019-05-13T11:49:04.993Z,2.40
2019-05-13T11:52:08.708Z,1.73
2019-05-13T11:55:13.193Z,2.40
2019-05-13T11:58:17.020Z,2.00
2019-05-13T12:01:22.885Z,2.23
2019-05-13T12:04:26.568Z,2.20
2019-05-13T12:07:32.938Z,2.10
2019-05-13T12:10:35.963Z,2.50
2019-05-13T12:13:42.044Z,1.70
2019-05-13T12:16:45.136Z,1.98
2019-05-13T12:19:49.065Z,1.80
2019-05-13T12:22:52.994Z,1.93
2019-05-13T12:25:56.639Z,2.07
2019-05-13T12:29:02.743Z,2.00
2019-05-13T12:32:06.003Z,1.90
2019-05-13T12:35:13.225Z,1.90
2019-05-13T12:38:15.656Z,2.13
2019-05-13T12:41:22.756Z,2.23
2019-05-13T12:44:25.025Z,2.20
2019-05-13T12:47:28.975Z,1.87
2019-05-13T12:50:33.016Z,2.00
2019-05-13T12:53:36.783Z,1.90
2019-05-13T12:56:42.552Z,2.10
2019-05-13T12:59:46.290Z,1.80
2019-05-13T13:02:52.017Z,2.20
2019-05-13T13:06:21.126Z,2.30
2019-05-13T13:09:01.429Z,2.17
2019-05-13T13:12:05.156Z,2.23
2019-05-13T13:15:32.917Z,2.57
2019-05-13T13:18:15.271Z,2.25
2019-05-13T13:21:19.221Z,2.20
2019-05-13T13:24:23.807Z,2.33
2019-05-13T13:27:57.711Z,1.93
2019-05-13T13:30:35.603Z,1.83
2019-05-13T13:33:39.419Z,2.43
2019-05-13T13:39:48.441Z,2.17
2019-05-13T13:42:53.197Z,1.97
2019-05-13T13:46:08.496Z,2.20
2019-05-13T13:49:02.644Z,2.23
2019-05-13T13:52:06.402Z,2.10
2019-05-13T13:55:15.324Z,2.00
2019-05-13T13:58:16.315Z,1.90
2019-05-13T14:01:26.052Z,1.80
2019-05-13T14:04:25.584Z,2.43
2019-05-13T14:07:13.009Z,2.33
2019-05-13T14:07:35.766Z,2.13
2019-05-13T14:10:34.745Z,1.80
2019-05-13T14:13:39.226Z,1.90
2019-05-13T14:16:46.433Z,1.90
2019-05-13T14:19:48.589Z,2.37
2019-05-13T14:22:57.536Z,1.97
2019-05-13T14:25:58.591Z,1.80
2019-05-13T14:29:02.804Z,1.90
2019-05-13T14:32:06.719Z,2.00
2019-05-13T14:35:12.277Z,2.20
2019-05-13T14:38:16.072Z,1.90
2019-05-13T14:41:21.775Z,1.90
2019-05-13T14:44:25.129Z,1.90
2019-05-13T14:47:29.077Z,2.00
2019-05-13T14:50:32.817Z,1.90
2019-05-13T14:53:36.531Z,2.10
2019-05-13T14:56:42.036Z,2.00
2019-05-13T14:59:45.989Z,1.83
2019-05-13T15:02:51.826Z,2.20
2019-05-13T15:05:56.137Z,2.08
2019-05-13T15:09:01.806Z,1.70
2019-05-13T15:12:05.721Z,1.90
2019-05-13T15:15:09.860Z,1.90
2019-05-13T15:18:13.565Z,1.80
2019-05-13T15:21:17.286Z,1.70
2019-05-13T15:24:21.351Z,1.93
2019-05-13T15:27:25.181Z,2.00
2019-05-13T15:30:31.555Z,1.67
2019-05-13T15:33:35.419Z,3.63
2019-05-13T15:36:39.153Z,1.90
2019-05-13T15:39:43.094Z,1.70
2019-05-13T15:42:46.858Z,4.40
2019-05-13T15:45:51.285Z,2.60
2019-05-13T15:48:55.870Z,2.13
2019-05-13T15:52:01.747Z,1.73
2019-05-13T15:55:05.477Z,1.40
2019-05-13T15:58:11.555Z,1.90
2019-05-13T16:01:14.779Z,1.60
2019-05-13T16:04:18.461Z,1.63
2019-05-13T16:07:22.434Z,1.80
2019-05-13T16:10:26.123Z,1.80
2019-05-13T16:13:31.795Z,1.70
2019-05-13T16:16:35.985Z,1.63
2019-05-13T16:19:41.878Z,2.30
2019-05-13T16:22:45.336Z,2.50
2019-05-13T16:25:51.993Z,1.90
2019-05-13T16:28:55.293Z,2.00
2019-05-13T16:32:01.345Z,1.80
2019-05-13T16:35:05.069Z,2.07
2019-05-13T16:38:11.148Z,1.90
2019-05-13T16:41:14.289Z,2.17
2019-05-13T16:44:18.209Z,3.00
2019-05-13T16:47:21.898Z,2.57
2019-05-13T16:50:25.832Z,2.07
2019-05-13T16:53:31.447Z,2.00
2019-05-13T16:56:35.467Z,2.03
2019-05-13T16:59:41.004Z,1.80
2019-05-13T17:02:44.608Z,1.93
2019-05-13T17:05:48.389Z,1.83
2019-05-13T17:08:52.108Z,2.10
2019-05-13T17:11:55.872Z,2.07
2019-05-13T17:15:01.432Z,3.10
2019-05-13T17:18:11.233Z,3.80
2019-05-13T17:21:11.180Z,2.60
2019-05-13T17:24:14.957Z,4.60
2019-05-13T17:27:18.647Z,3.97
2019-05-13T17:30:23.925Z,4.93
2019-05-13T17:33:27.721Z,3.60
2019-05-13T17:36:32.484Z,4.10
2019-05-13T17:39:36.821Z,2.63
2019-05-13T17:42:41.425Z,2.10
2019-05-13T17:45:45.482Z,2.10
2019-05-13T17:48:49.207Z,1.87
2019-05-13T17:51:52.893Z,3.93
2019-05-13T17:54:56.619Z,3.07
2019-05-13T17:58:01.364Z,2.13
2019-05-13T18:01:05.618Z,2.10
2019-05-13T18:04:11.788Z,2.23
2019-05-13T18:07:15.277Z,2.00
2019-05-13T18:10:19.030Z,1.70
2019-05-13T18:13:22.725Z,2.00
2019-05-13T18:16:27.158Z,2.00
2019-05-13T18:19:31.697Z,2.20
2019-05-13T18:22:36.031Z,2.37
2019-05-13T18:25:42.055Z,2.33
2019-05-13T18:28:45.158Z,1.93
2019-05-13T18:31:49.124Z,2.43
2019-05-13T18:34:52.841Z,2.00
2019-05-13T18:37:56.586Z,2.60
2019-05-13T18:41:06.294Z,2.30
2019-05-13T18:44:22.156Z,2.20
2019-05-13T18:47:26.099Z,2.50
2019-05-13T18:50:31.322Z,2.30
2019-05-13T18:53:35.673Z,2.10
2019-05-13T18:56:41.472Z,2.20
2019-05-13T18:59:45.084Z,2.20
2019-05-13T19:02:48.769Z,1.70
2019-05-13T19:05:52.496Z,1.93
2019-05-13T19:08:56.255Z,2.17
2019-05-13T19:12:01.469Z,1.97
2019-05-13T19:15:07.078Z,2.37
2019-05-13T19:18:12.214Z,3.30
2019-05-13T19:21:16.174Z,3.00
2019-05-13T19:24:19.848Z,2.80
2019-05-13T19:27:23.553Z,2.67
2019-05-13T19:30:27.251Z,2.60
2019-05-13T19:33:31.319Z,2.13
2019-05-13T19:36:35.019Z,2.63
2019-05-13T19:39:38.692Z,2.20
2019-05-13T19:42:42.505Z,2.60
2019-05-13T19:45:46.226Z,2.77
2019-05-13T19:48:52.071Z,2.50
2019-05-13T19:51:55.343Z,2.50
2019-05-13T19:55:01.398Z,2.45
2019-05-13T19:58:04.693Z,2.40
2019-05-13T20:01:08.650Z,2.43
2019-05-13T20:04:12.339Z,2.60
2019-05-13T20:07:16.283Z,2.40
2019-05-13T20:10:21.984Z,2.83
2019-05-13T20:13:25.970Z,2.60
2019-05-13T20:16:31.992Z,3.20
2019-05-13T20:19:46.546Z,2.90
2019-05-13T20:22:42.233Z,2.60
2019-05-13T20:25:49.363Z,3.00
2019-05-13T20:28:53.029Z,2.73
2019-05-13T20:31:56.709Z,2.30
2019-05-13T20:35:02.136Z,2.43
2019-05-13T20:38:06.279Z,2.73
2019-05-13T20:41:11.635Z,2.30
2019-05-13T20:44:15.473Z,2.43
2019-05-13T20:47:21.001Z,2.63
2019-05-13T20:50:24.605Z,2.10
2019-05-13T20:53:28.550Z,2.27
2019-05-13T20:56:32.236Z,2.60
2019-05-13T20:59:35.928Z,2.50
2019-05-13T21:02:41.672Z,2.70
2019-05-13T21:05:45.282Z,2.70
2019-05-13T21:08:48.988Z,2.30
2019-05-13T21:11:52.768Z,2.50
2019-05-13T21:14:56.475Z,2.23
2019-05-13T21:18:02.026Z,2.17
2019-05-13T21:21:05.592Z,2.37
2019-05-13T21:24:09.505Z,2.37
2019-05-13T21:27:14.007Z,2.73
2019-05-13T21:30:17.851Z,2.77
2019-05-13T21:33:22.099Z,2.87
2019-05-13T21:36:26.016Z,2.60
2019-05-13T21:39:31.833Z,2.30
2019-05-13T21:42:35.495Z,3.03
2019-05-13T21:45:41.072Z,2.83
2019-05-13T21:48:44.582Z,3.07
2019-05-13T21:51:48.473Z,2.80
2019-05-13T21:54:52.169Z,2.90
2019-05-13T21:57:56.105Z,2.80
2019-05-13T22:01:01.577Z,3.20
2019-05-13T22:04:05.485Z,2.43
2019-05-13T22:07:11.930Z,2.77
2019-05-13T22:10:15.445Z,2.60
2019-05-13T22:13:19.078Z,2.50
2019-05-13T22:16:22.757Z,2.43
2019-05-13T22:19:26.419Z,2.60
2019-05-13T22:22:32.103Z,2.60
2019-05-13T22:25:36.194Z,2.95
2019-05-13T22:28:41.722Z,2.93
2019-05-13T22:31:45.489Z,3.07
2019-05-13T22:34:51.043Z,3.10
2019-05-13T22:37:54.538Z,2.70
2019-05-13T22:41:01.050Z,2.73
2019-05-13T22:44:04.198Z,3.03
2019-05-13T22:47:07.862Z,3.33
2019-05-13T22:50:12.223Z,3.07
2019-05-13T22:53:15.888Z,3.17
2019-05-13T22:56:19.528Z,3.37
2019-05-13T22:59:23.233Z,3.12
2019-05-13T23:02:27.435Z,3.20
2019-05-13T23:05:31.242Z,3.23
2019-05-13T23:08:35.174Z,3.10
2019-05-13T23:11:39.073Z,3.22
2019-05-13T23:14:42.843Z,3.43
2019-05-13T23:17:48.550Z,2.87
2019-05-13T23:20:52.164Z,2.93
2019-05-13T23:23:55.927Z,2.97
2019-05-13T23:27:01.919Z,3.30
2019-05-13T23:30:05.285Z,2.77
2019-05-13T23:33:11.412Z,2.80
2019-05-13T23:36:14.481Z,2.93
2019-05-13T23:39:18.136Z,2.77
2019-05-13T23:42:21.835Z,3.23
2019-05-13T23:45:25.497Z,2.77
2019-05-13T23:48:29.201Z,2.63
2019-05-13T23:51:32.874Z,2.77
2019-05-13T23:54:36.797Z,2.50
2019-05-13T23:57:42.155Z,2.57
